Time;durP1;ratioP1;P1;durP2;ratioP2;P2;SDS_P1;SDS_P2;PMS_P1;PMS_P2;Temp;Humidity;BMP_temperature;BMP_pressure;BME280_temperature;BME280_humidity;BME280_pressure;Samples;Min_cycle;Max_cycle;Signal;HPM_P1;HPM_P2
2023/06/09 00:02:06;;;;;;;;;21.25;20.00;;;;;26.04;39.52;100268.81;4957637;28;45890;-77
2023/06/09 00:04:35;;;;;;;;;22.25;20.75;;;;;26.09;39.59;100284.28;4974975;28;45708;-76
2023/06/09 00:07:02;;;;;;;;;22.25;20.25;;;;;26.03;39.37;100285.13;4975005;28;45865;-76
2023/06/09 00:09:29;;;;;;;;;19.75;19.00;;;;;25.91;39.36;100266.25;4974646;28;46537;-76
2023/06/09 00:11:56;;;;;;;;;25.25;22.00;;;;;25.85;39.80;100267.94;4957590;28;47330;-77
2023/06/09 00:20:46;;;;;;;;;21.50;18.25;;;;;25.77;40.19;100272.72;4974692;28;46053;-76
2023/06/09 00:23:13;;;;;;;;;20.50;20.50;;;;;25.73;40.51;100275.03;4974615;28;46272;-77
2023/06/09 00:25:39;;;;;;;;;22.25;20.75;;;;;25.61;40.50;100259.81;4974798;28;45689;-77
2023/06/09 00:28:04;;;;;;;;;21.50;20.25;;;;;25.50;40.70;100245.19;4974521;28;45771;-76
2023/06/09 00:30:29;;;;;;;;;22.50;22.00;;;;;25.62;40.93;100272.19;4974448;28;46386;-75
2023/06/09 00:32:56;;;;;;;;;20.25;20.00;;;;;25.59;40.86;100267.28;4974445;28;47289;-77
2023/06/09 00:35:23;;;;;;;;;23.00;22.25;;;;;25.57;40.85;100266.66;4974551;28;45548;-77
2023/06/09 00:37:48;;;;;;;;;22.50;21.75;;;;;25.53;41.06;100266.25;4974631;28;45899;-77
2023/06/09 00:40:15;;;;;;;;;21.50;20.50;;;;;25.52;41.29;100258.41;4974497;28;45603;-76
2023/06/09 00:42:40;;;;;;;;;20.75;19.00;;;;;25.53;41.08;100260.06;4974541;28;47075;-77
2023/06/09 00:45:06;;;;;;;;;22.25;22.00;;;;;25.43;41.22;100245.22;4974274;28;45615;-77
2023/06/09 00:47:32;;;;;;;;;21.25;20.00;;;;;25.44;41.40;100248.72;4974189;28;45565;-76
2023/06/09 00:49:58;;;;;;;;;23.00;21.75;;;;;25.42;41.42;100246.28;4974108;28;46269;-76
2023/06/09 00:52:25;;;;;;;;;21.75;21.25;;;;;25.28;41.45;100227.75;4974683;28;45672;-77
2023/06/09 00:54:52;;;;;;;;;25.75;24.25;;;;;25.37;41.90;100245.28;4974661;28;45757;-75
2023/06/09 00:57:19;;;;;;;;;20.00;19.25;;;;;25.19;41.89;100218.31;4974434;28;45869;-77
2023/06/09 00:59:46;;;;;;;;;15.75;15.00;;;;;25.05;41.86;100210.31;4956604;28;47518;-75
2023/06/09 01:05:38;;;;;;;;;19.25;18.50;;;;;25.15;41.89;100230.53;4974236;28;45688;-76
2023/06/09 01:08:25;;;;;;;;;21.00;20.75;;;;;25.13;42.24;100238.78;4974023;28;46053;-75
2023/06/09 01:11:26;;;;;;;;;21.75;20.25;;;;;25.07;42.59;100237.75;4974014;28;47312;-76
2023/06/09 01:14:13;;;;;;;;;23.50;23.25;;;;;24.99;43.00;100231.81;4895268;29;46300;-76
2023/06/09 01:16:51;;;;;;;;;22.75;22.25;;;;;24.90;43.05;100236.56;4895937;29;45561;-77
2023/06/09 01:19:31;;;;;;;;;25.00;23.25;;;;;24.83;43.55;100235.72;4895561;29;45920;-77
2023/06/09 01:22:01;;;;;;;;;22.50;21.25;;;;;24.75;43.03;100227.94;4895029;29;46407;-76
2023/06/09 01:24:45;;;;;;;;;24.50;24.25;;;;;24.62;43.50;100212.69;4894985;29;46037;-77
2023/06/09 01:27:14;;;;;;;;;28.00;26.00;;;;;24.63;43.74;100221.56;4880097;29;45622;-76
2023/06/09 01:29:43;;;;;;;;;23.00;22.75;;;;;24.59;43.59;100223.03;4879223;29;46086;-76
2023/06/09 01:32:10;;;;;;;;;25.75;23.00;;;;;24.51;43.83;100213.34;4894666;29;47419;-75
2023/06/09 01:34:35;;;;;;;;;25.00;24.75;;;;;24.50;43.99;100213.56;4895015;29;46271;-75
2023/06/09 01:37:02;;;;;;;;;23.25;22.25;;;;;24.46;43.68;100217.69;4895020;29;46242;-76
2023/06/09 01:39:28;;;;;;;;;26.50;25.25;;;;;24.40;44.29;100211.31;4894678;29;45750;-76
2023/06/09 01:41:54;;;;;;;;;23.50;22.25;;;;;24.34;44.15;100212.16;4894897;29;45781;-76
2023/06/09 01:44:20;;;;;;;;;24.75;23.50;;;;;24.32;44.05;100216.06;4878846;29;46709;-75
2023/06/09 01:46:45;;;;;;;;;26.00;25.00;;;;;24.22;44.42;100203.09;4896959;28;45618;-74
2023/06/09 01:49:21;;;;;;;;;24.00;23.00;;;;;24.24;44.36;100219.75;4954489;28;45478;-77
2023/06/09 01:52:06;;;;;;;;;27.00;24.75;;;;;24.01;44.63;100182.72;4953038;28;46943;-76
2023/06/09 01:54:37;;;;;;;;;29.00;25.50;;;;;24.12;45.12;100211.53;4953107;28;46607;-76
2023/06/09 01:57:07;;;;;;;;;23.00;22.25;;;;;24.12;44.83;100216.88;4951667;28;45947;-74
2023/06/09 01:59:47;;;;;;;;;23.25;22.50;;;;;24.07;45.37;100211.31;4952909;28;45648;-76
2023/06/09 02:02:13;;;;;;;;;25.00;23.50;;;;;24.01;45.43;100214.00;4953302;28;46460;-76
2023/06/09 02:04:41;;;;;;;;;23.25;22.75;;;;;23.94;45.33;100211.31;4953359;28;46087;-76
2023/06/09 02:07:09;;;;;;;;;21.00;20.00;;;;;23.72;45.53;100181.25;4935650;28;45811;-76
2023/06/09 02:09:35;;;;;;;;;25.75;24.75;;;;;23.77;45.55;100186.81;4953209;28;45833;-76
2023/06/09 02:12:01;;;;;;;;;22.25;21.75;;;;;23.55;45.28;100166.63;4967680;28;47309;-75
2023/06/09 02:14:33;;;;;;;;;23.50;23.25;;;;;23.80;45.30;100207.00;4952667;28;46266;-75
2023/06/09 02:17:00;;;;;;;;;24.25;23.75;;;;;23.76;46.06;100197.69;4955896;28;45751;-74
2023/06/09 02:19:25;;;;;;;;;23.25;22.50;;;;;23.70;46.33;100194.00;4971002;28;45675;-75
2023/06/09 02:21:51;;;;;;;;;27.50;25.00;;;;;23.73;46.28;100198.13;4956075;28;46411;-76
2023/06/09 02:24:17;;;;;;;;;26.50;23.75;;;;;23.69;46.44;100202.25;4956421;28;45718;-74
2023/06/09 02:26:43;;;;;;;;;26.50;23.75;;;;;23.67;46.19;100201.63;4938701;28;46080;-74
2023/06/09 02:29:08;;;;;;;;;27.25;25.00;;;;;23.66;46.27;100191.94;4955743;28;45675;-75
2023/06/09 02:34:55;;;;;;;;;23.50;23.00;;;;;23.60;45.77;100188.22;4956035;28;46522;-75
2023/06/09 02:37:21;;;;;;;;;24.00;24.00;;;;;23.54;45.86;100182.84;4956122;28;45612;-77
2023/06/09 02:39:46;;;;;;;;;20.50;20.50;;;;;23.57;46.03;100187.81;4955585;28;45752;-76
2023/06/09 02:42:11;;;;;;;;;23.50;23.25;;;;;23.55;46.27;100192.53;4956103;28;45693;-76
2023/06/09 02:44:38;;;;;;;;;22.50;21.50;;;;;23.42;45.90;100162.06;4956026;28;45647;-75
2023/06/09 02:51:06;;;;;;;;;25.00;23.75;;;;;23.42;45.98;100164.72;4971122;28;47449;-76
2023/06/09 02:53:32;;;;;;;;;23.50;23.50;;;;;23.44;46.37;100165.34;4974940;28;46487;-77
2023/06/09 02:55:57;;;;;;;;;29.25;25.25;;;;;23.39;46.35;100158.94;4974927;28;47112;-76
2023/06/09 02:58:24;;;;;;;;;23.25;21.75;;;;;23.42;46.59;100175.44;4974798;28;45685;-77
2023/06/09 03:00:50;;;;;;;;;25.75;22.75;;;;;23.40;46.49;100177.47;4975285;28;46032;-76
2023/06/09 03:06:36;;;;;;;;;28.00;25.50;;;;;23.28;46.65;100171.06;4974532;28;45752;-77
2023/06/09 03:09:03;;;;;;;;;22.25;21.50;;;;;23.27;46.67;100182.78;4974440;28;45841;-76
2023/06/09 03:11:29;;;;;;;;;23.00;21.00;;;;;23.22;46.86;100174.53;4974685;28;45806;-77
2023/06/09 03:13:55;;;;;;;;;22.75;22.00;;;;;23.19;47.01;100171.44;4973130;28;46627;-75
2023/06/09 03:16:22;;;;;;;;;26.25;23.00;;;;;23.17;47.15;100173.50;4957243;28;45604;-75
2023/06/09 03:18:48;;;;;;;;;25.50;24.00;;;;;23.10;47.56;100176.16;4974159;28;45857;-76
2023/06/09 03:21:14;;;;;;;;;23.50;22.50;;;;;23.15;47.08;100186.25;4974984;28;45866;-76
2023/06/09 03:23:43;;;;;;;;;22.75;21.00;;;;;23.08;47.38;100182.72;4974720;28;46492;-76
2023/06/09 03:26:09;;;;;;;;;26.25;24.50;;;;;23.04;46.89;100176.13;4974123;28;46314;-76
2023/06/09 03:28:34;;;;;;;;;26.00;24.00;;;;;22.93;47.83;100170.34;4956698;28;45867;-77
2023/06/09 03:30:59;;;;;;;;;23.75;23.00;;;;;23.01;47.78;100183.53;4975108;28;45794;-78
2023/06/09 03:36:46;;;;;;;;;27.00;24.50;;;;;23.00;47.68;100184.53;4974458;28;46098;-75
2023/06/09 03:39:12;;;;;;;;;26.25;24.25;;;;;22.95;48.26;100183.50;4974094;28;45681;-74
2023/06/09 03:41:37;;;;;;;;;23.50;22.75;;;;;22.99;48.21;100193.59;4957116;28;45960;-76
2023/06/09 03:44:03;;;;;;;;;23.75;22.75;;;;;22.97;47.92;100178.78;4974405;28;45816;-75
2023/06/09 03:46:28;;;;;;;;;22.25;20.00;;;;;22.94;47.52;100184.53;4974255;28;46349;-76
2023/06/09 03:52:15;;;;;;;;;24.50;23.25;;;;;22.89;48.01;100176.25;4963601;28;46189;-75
2023/06/09 03:54:40;;;;;;;;;26.75;26.00;;;;;22.89;47.64;100170.91;4974052;28;47446;-77
2023/06/09 03:57:06;;;;;;;;;25.50;23.75;;;;;22.93;47.72;100174.88;4973754;28;46150;-76
2023/06/09 03:59:31;;;;;;;;;23.25;23.00;;;;;22.89;48.23;100176.25;4973711;28;45679;-77
2023/06/09 04:01:57;;;;;;;;;23.75;22.50;;;;;22.91;47.60;100183.06;4973864;28;45685;-77
2023/06/09 04:04:22;;;;;;;;;24.00;23.50;;;;;22.92;47.49;100186.56;4973850;28;47168;-77
2023/06/09 04:06:48;;;;;;;;;22.00;21.00;;;;;22.92;48.10;100181.22;4973794;28;47014;-76
2023/06/09 04:09:15;;;;;;;;;21.25;20.50;;;;;22.91;47.97;100182.25;4972387;28;45738;-77
2023/06/09 04:11:40;;;;;;;;;26.00;24.00;;;;;22.94;48.04;100180.00;4974303;28;45577;-76
2023/06/09 04:14:06;;;;;;;;;22.50;21.75;;;;;22.91;47.74;100167.03;4973911;28;46362;-77
2023/06/09 04:16:31;;;;;;;;;28.50;25.50;;;;;22.91;47.33;100169.72;4974037;28;45843;-76
2023/06/09 04:22:18;;;;;;;;;25.75;23.50;;;;;22.96;48.29;100171.78;4973975;28;45815;-77
2023/06/09 04:24:44;;;;;;;;;27.50;26.00;;;;;22.97;48.23;100178.78;4956207;28;47665;-77
2023/06/09 04:27:09;;;;;;;;;25.00;24.00;;;;;22.96;47.56;100180.63;4973215;28;47444;-76
2023/06/09 04:29:34;;;;;;;;;24.25;23.00;;;;;22.96;48.24;100182.47;4973340;28;45664;-75
2023/06/09 04:32:02;;;;;;;;;21.50;21.25;;;;;22.95;47.50;100191.50;4973624;28;45559;-76
2023/06/09 04:34:28;;;;;;;;;23.25;22.25;;;;;22.87;47.99;100178.34;4973309;28;46491;-77
2023/06/09 04:36:55;;;;;;;;;25.25;23.50;;;;;22.87;48.18;100181.00;4973110;28;46008;-76
2023/06/09 04:39:21;;;;;;;;;26.00;23.50;;;;;22.90;48.23;100188.59;4972336;28;45584;-78
2023/06/09 04:41:52;;;;;;;;;23.00;21.75;;;;;22.90;47.69;100188.59;4973944;28;45581;-77
2023/06/09 04:44:18;;;;;;;;;24.50;24.00;;;;;22.83;48.32;100179.75;4955899;28;48472;-78
2023/06/09 04:46:43;;;;;;;;;23.00;21.50;;;;;22.80;47.72;100178.28;4973116;28;46124;-77
2023/06/09 04:52:31;;;;;;;;;25.25;22.50;;;;;22.81;47.77;100187.97;4970970;28;45660;-76
2023/06/09 04:54:57;;;;;;;;;23.00;21.75;;;;;22.84;48.21;100198.25;4973197;28;47742;-73
2023/06/09 04:57:22;;;;;;;;;27.00;25.50;;;;;22.82;47.82;100194.97;4972896;28;46091;-72
2023/06/09 04:59:48;;;;;;;;;23.25;23.00;;;;;22.82;47.84;100194.13;4972794;28;45977;-74
2023/06/09 05:02:13;;;;;;;;;27.50;25.25;;;;;22.81;47.87;100195.97;4972947;28;45963;-72
2023/06/09 05:08:00;;;;;;;;;27.00;25.75;;;;;22.82;48.50;100196.81;4972453;28;45677;-73
2023/06/09 05:10:25;;;;;;;;;30.75;27.00;;;;;22.80;48.10;100198.84;4973244;28;45758;-73
2023/06/09 05:12:51;;;;;;;;;24.25;23.75;;;;;22.80;48.37;100188.16;4955399;28;45773;-72
2023/06/09 05:15:16;;;;;;;;;24.50;24.50;;;;;22.83;47.59;100193.13;4955375;28;46691;-73
2023/06/09 05:17:41;;;;;;;;;27.25;24.75;;;;;22.86;47.56;100198.06;4972298;28;45655;-73
2023/06/09 05:20:10;;;;;;;;;26.00;26.00;;;;;22.85;48.07;100196.41;4972834;28;45867;-73
2023/06/09 05:22:36;;;;;;;;;27.00;26.00;;;;;22.87;47.59;100194.34;4972706;28;45959;-73
2023/06/09 05:25:08;;;;;;;;;26.50;25.25;;;;;22.89;47.73;100206.47;4972663;28;46524;-74
2023/06/09 05:27:33;;;;;;;;;25.50;23.00;;;;;22.81;47.87;100192.47;4972147;28;47476;-75
2023/06/09 05:29:58;;;;;;;;;24.00;23.75;;;;;22.90;47.40;100200.13;4955376;28;45676;-74
2023/06/09 05:32:24;;;;;;;;;28.25;27.25;;;;;22.93;47.95;100204.25;4972642;28;45831;-74
2023/06/09 05:38:11;;;;;;;;;25.50;24.25;;;;;22.96;47.85;100209.19;4971630;28;46089;-73
2023/06/09 05:40:36;;;;;;;;;27.00;23.50;;;;;22.99;47.64;100209.63;4954397;28;45987;-74
2023/06/09 05:43:02;;;;;;;;;23.25;23.00;;;;;23.02;47.29;100197.72;4971921;28;45853;-74
2023/06/09 05:45:27;;;;;;;;;23.50;23.25;;;;;22.97;46.96;100195.63;4954874;28;47907;-72
2023/06/09 05:47:53;;;;;;;;;23.25;19.75;;;;;23.09;46.87;100214.59;4970842;28;46170;-73
2023/06/09 05:50:18;;;;;;;;;24.25;21.75;;;;;23.13;46.98;100215.03;4974232;28;45720;-73
2023/06/09 05:52:44;;;;;;;;;25.50;23.00;;;;;23.15;47.23;100221.00;4975664;28;45569;-72
2023/06/09 05:55:09;;;;;;;;;18.00;16.75;;;;;23.20;46.52;100213.19;4975422;28;47284;-74
2023/06/09 05:57:34;;;;;;;;;22.00;20.75;;;;;23.18;46.52;100202.69;4973211;28;47230;-73
2023/06/09 06:00:00;;;;;;;;;22.25;21.75;;;;;23.24;47.03;100211.78;4975692;28;46051;-75
2023/06/09 06:02:27;;;;;;;;;20.25;19.50;;;;;23.29;46.52;100212.81;4975642;28;45564;-75
2023/06/09 06:08:14;;;;;;;;;21.00;20.25;;;;;23.27;46.60;100198.81;4975086;28;45950;-76
2023/06/09 06:10:40;;;;;;;;;23.25;22.50;;;;;23.37;46.47;100203.81;4975250;28;45763;-77
2023/06/09 06:13:09;;;;;;;;;23.50;22.00;;;;;23.43;45.99;100214.50;4975433;28;45654;-76
2023/06/09 06:15:34;;;;;;;;;19.50;17.00;;;;;23.38;45.91;100200.06;4975159;28;46934;-76
2023/06/09 06:18:00;;;;;;;;;20.00;18.75;;;;;23.44;45.73;100200.09;4974813;28;46074;-74
2023/06/09 06:23:47;;;;;;;;;21.75;17.00;;;;;23.32;45.80;100158.94;4975834;28;45802;-73
2023/06/09 06:26:12;;;;;;;;;22.50;21.25;;;;;23.64;45.10;100208.22;4975096;28;47386;-76
2023/06/09 06:28:37;;;;;;;;;20.00;19.25;;;;;23.69;45.68;100218.28;4974792;28;47018;-76
2023/06/09 06:31:03;;;;;;;;;21.75;20.25;;;;;23.72;45.34;100215.19;4975398;28;45671;-73
2023/06/09 06:33:29;;;;;;;;;21.00;20.75;;;;;23.73;45.04;100206.97;4975784;28;45699;-75
2023/06/09 06:39:16;;;;;;;;;19.75;18.50;;;;;23.82;44.99;100197.72;4975078;28;46100;-77
2023/06/09 06:41:41;;;;;;;;;23.75;22.00;;;;;23.89;45.00;100207.59;4973624;28;45623;-75
2023/06/09 06:44:07;;;;;;;;;19.50;18.75;;;;;23.91;44.41;100203.72;4971735;28;45996;-71
2023/06/09 06:46:33;;;;;;;;;17.75;16.75;;;;;23.97;44.17;100208.22;4970793;28;47599;-73
2023/06/09 06:48:58;;;;;;;;;19.50;18.50;;;;;23.98;44.50;100204.50;4974817;28;45813;-76
2023/06/09 06:51:23;;;;;;;;;20.75;20.00;;;;;24.05;44.08;100216.06;4975528;28;45628;-73
2023/06/09 06:53:48;;;;;;;;;19.25;18.00;;;;;24.10;43.86;100213.56;4975189;28;45587;-73
2023/06/09 06:56:14;;;;;;;;;17.75;16.75;;;;;24.14;44.31;100213.97;4974776;28;46230;-75
2023/06/09 06:58:40;;;;;;;;;24.00;23.50;;;;;24.17;43.85;100216.25;4974560;28;45835;-75
2023/06/09 07:01:05;;;;;;;;;22.25;20.50;;;;;24.20;44.15;100214.00;4974203;28;45506;-74
2023/06/09 07:03:33;;;;;;;;;22.00;20.75;;;;;24.22;43.70;100217.31;4974938;28;45607;-73
2023/06/09 07:09:20;;;;;;;;;22.75;21.50;;;;;24.31;44.02;100209.06;4975416;28;46051;-74
2023/06/09 07:11:45;;;;;;;;;21.75;19.50;;;;;24.34;43.31;100214.00;4957988;28;45650;-72
2023/06/09 07:14:11;;;;;;;;;19.00;17.50;;;;;24.37;43.66;100213.59;4975860;28;45808;-74
2023/06/09 07:16:36;;;;;;;;;17.75;15.75;;;;;24.41;43.49;100217.47;4975264;28;46459;-72
2023/06/09 07:19:01;;;;;;;;;21.00;20.00;;;;;24.44;43.27;100215.22;4975561;28;45786;-74
2023/06/09 07:24:48;;;;;;;;;21.00;19.50;;;;;24.44;43.60;100214.41;4975906;28;45608;-73
2023/06/09 07:27:14;;;;;;;;;17.00;16.50;;;;;24.53;43.49;100229.22;4975153;28;47248;-75
2023/06/09 07:29:41;;;;;;;;;20.50;19.50;;;;;24.55;43.21;100229.84;4975299;28;47094;-74
2023/06/09 07:32:07;;;;;;;;;19.25;17.50;;;;;24.55;43.30;100232.53;4974848;28;45847;-73
2023/06/09 07:34:33;;;;;;;;;20.25;18.25;;;;;24.57;42.89;100239.31;4975354;28;45878;-74
2023/06/09 07:37:00;;;;;;;;;19.75;19.25;;;;;24.58;43.22;100237.44;4975048;28;45573;-74
2023/06/09 07:39:26;;;;;;;;;20.00;18.75;;;;;24.59;43.66;100239.94;4974773;28;47178;-73
2023/06/09 07:41:51;;;;;;;;;20.00;19.25;;;;;24.62;43.36;100244.84;4975298;28;45669;-73
2023/06/09 07:44:17;;;;;;;;;23.25;21.00;;;;;24.63;43.20;100245.69;4975699;28;45659;-74
2023/06/09 07:46:42;;;;;;;;;19.75;18.75;;;;;24.63;43.51;100229.59;4974590;28;46518;-75
2023/06/09 07:49:08;;;;;;;;;21.75;21.75;;;;;24.68;43.60;100229.81;4975026;28;45766;-76
2023/06/09 07:55:35;;;;;;;;;19.50;18.50;;;;;24.76;43.29;100239.47;4970611;28;45811;-73
2023/06/09 07:58:01;;;;;;;;;18.50;18.50;;;;;24.78;43.43;100237.44;4974351;28;47298;-72
2023/06/09 08:00:26;;;;;;;;;21.25;19.00;;;;;24.81;43.26;100242.34;4974843;28;46065;-74
2023/06/09 08:03:00;;;;;;;;;19.00;17.50;;;;;24.83;42.89;100233.06;4974768;28;45851;-72
2023/06/09 08:05:26;;;;;;;;;21.50;18.50;;;;;24.88;43.52;100229.78;4974628;28;45617;-72
2023/06/09 08:07:51;;;;;;;;;21.75;21.00;;;;;24.90;43.07;100227.72;4974196;28;47166;-72
2023/06/09 08:10:17;;;;;;;;;23.50;20.75;;;;;24.94;43.13;100228.97;4974895;28;46174;-72
2023/06/09 08:12:42;;;;;;;;;19.00;18.00;;;;;24.98;42.82;100238.22;4974156;28;45777;-72
2023/06/09 08:15:08;;;;;;;;;20.75;17.75;;;;;25.00;43.25;100226.22;4975103;28;45811;-73
2023/06/09 08:17:33;;;;;;;;;34.25;30.25;;;;;25.00;43.39;100212.81;4974637;28;48336;-71
2023/06/09 08:19:58;;;;;;;;;23.75;22.25;;;;;25.07;43.34;100210.94;4974399;28;46194;-74
2023/06/09 08:25:45;;;;;;;;;23.25;22.00;;;;;25.13;43.13;100205.75;4974639;28;45589;-72
2023/06/09 08:28:10;;;;;;;;;24.50;23.00;;;;;25.18;43.06;100209.44;4974400;28;45595;-74
2023/06/09 08:30:36;;;;;;;;;20.50;18.50;;;;;25.21;42.92;100208.22;4974456;28;46152;-74
2023/06/09 08:33:01;;;;;;;;;22.75;21.25;;;;;25.24;42.95;100203.25;4973606;28;45791;-73
2023/06/09 08:35:31;;;;;;;;;17.75;16.50;;;;;25.27;42.64;100204.66;4974678;28;45592;-72
2023/06/09 08:37:57;;;;;;;;;21.75;20.00;;;;;25.33;43.01;100196.56;4956116;28;48261;-73
2023/06/09 08:40:22;;;;;;;;;18.00;16.50;;;;;25.34;43.19;100194.72;4974056;28;47128;-73
2023/06/09 08:42:52;;;;;;;;;21.25;18.25;;;;;25.40;42.89;100199.22;4974689;28;45624;-73
2023/06/09 08:45:18;;;;;;;;;20.25;20.25;;;;;25.42;42.97;100194.47;4974485;28;45947;-72
2023/06/09 08:47:47;;;;;;;;;19.25;17.75;;;;;25.47;42.75;100198.16;4956419;28;47534;-72
2023/06/09 08:50:13;;;;;;;;;21.00;18.50;;;;;25.52;42.66;100202.88;4974216;28;45886;-72
2023/06/09 08:56:01;;;;;;;;;21.00;20.00;;;;;25.60;41.83;100204.50;4963545;28;45616;-71
2023/06/09 08:58:27;;;;;;;;;20.50;19.00;;;;;25.59;42.29;100186.78;4973676;28;47776;-74
2023/06/09 09:00:53;;;;;;;;;17.75;16.00;;;;;25.65;42.18;100189.38;4973990;28;45915;-73
2023/06/09 09:03:20;;;;;;;;;21.75;17.75;;;;;25.70;41.74;100188.72;4974389;28;45721;-74
2023/06/09 09:05:47;;;;;;;;;19.00;19.00;;;;;25.69;41.57;100184.44;4973785;28;45827;-74
2023/06/09 09:08:14;;;;;;;;;15.75;14.75;;;;;25.75;41.51;100187.03;4973666;28;46385;-72
2023/06/09 09:10:43;;;;;;;;;22.00;18.25;;;;;25.84;41.10;100191.13;4973651;28;46437;-73
2023/06/09 09:13:12;;;;;;;;;19.25;17.50;;;;;25.88;41.42;100195.00;4974123;28;45670;-73
2023/06/09 09:15:46;;;;;;;;;19.25;19.25;;;;;25.93;40.86;100183.59;4974150;28;45584;-74
2023/06/09 09:18:12;;;;;;;;;20.50;19.50;;;;;25.96;41.02;100187.72;4973575;28;47349;-72
2023/06/09 09:20:37;;;;;;;;;19.25;18.25;;;;;26.05;40.82;100189.09;4973546;28;46209;-72
2023/06/09 09:26:29;;;;;;;;;21.25;20.50;;;;;26.15;40.48;100178.66;4973918;28;45711;-72
2023/06/09 09:28:58;;;;;;;;;20.25;19.25;;;;;26.18;40.19;100178.22;4973518;28;46614;-71
2023/06/09 09:31:36;;;;;;;;;19.25;17.25;;;;;26.18;40.25;100179.03;4973806;28;46192;-73
2023/06/09 09:34:01;;;;;;;;;19.00;18.00;;;;;26.16;40.08;100162.31;4973549;28;45687;-72
2023/06/09 09:36:27;;;;;;;;;19.25;18.00;;;;;26.26;40.42;100170.72;4973624;28;45869;-73
2023/06/09 09:38:55;;;;;;;;;18.00;18.00;;;;;26.33;39.56;100164.47;4973476;28;45561;-72
2023/06/09 09:41:21;;;;;;;;;19.00;18.00;;;;;26.38;39.78;100170.00;4973775;28;45937;-72
2023/06/09 09:43:46;;;;;;;;;23.75;21.75;;;;;26.43;39.70;100168.28;4973517;28;45450;-72
2023/06/09 09:46:11;;;;;;;;;19.25;18.25;;;;;26.50;40.16;100162.84;4973826;28;45588;-73
2023/06/09 09:48:38;;;;;;;;;15.75;15.00;;;;;26.52;39.93;100158.06;4973297;28;46277;-73
2023/06/09 09:51:05;;;;;;;;;19.00;18.75;;;;;26.60;39.41;100166.66;4973339;28;46118;-73
2023/06/09 09:56:58;;;;;;;;;21.00;18.00;;;;;26.76;39.16;100162.53;4965146;28;45648;-73
2023/06/09 09:59:25;;;;;;;;;19.75;17.75;;;;;26.80;39.15;100157.53;4973203;28;47626;-71
2023/06/09 10:01:54;;;;;;;;;19.75;18.75;;;;;26.88;38.49;100160.78;4955949;28;47097;-72
2023/06/09 10:04:24;;;;;;;;;16.75;16.25;;;;;26.94;39.24;100157.16;4973818;28;45537;-74
2023/06/09 10:06:55;;;;;;;;;18.00;17.50;;;;;26.99;38.43;100143.84;4955557;28;45554;-72
2023/06/09 10:09:25;;;;;;;;;21.00;20.00;;;;;27.06;38.48;100152.66;4973184;28;45636;-72
2023/06/09 10:11:54;;;;;;;;;20.50;18.50;;;;;27.14;38.21;100154.22;4973419;28;46060;-72
2023/06/09 10:14:20;;;;;;;;;18.25;16.25;;;;;27.20;37.93;100147.94;4973628;28;45766;-73
2023/06/09 10:16:47;;;;;;;;;19.50;18.50;;;;;27.28;38.76;100157.53;4973112;28;45802;-72
2023/06/09 10:19:14;;;;;;;;;19.25;17.25;;;;;27.35;37.54;100139.44;4973026;28;46462;-73
2023/06/09 10:21:41;;;;;;;;;17.25;17.25;;;;;27.44;37.50;100154.19;4973308;28;46069;-72
2023/06/09 10:27:29;;;;;;;;;14.75;14.75;;;;;27.61;37.57;100141.75;4972788;28;45597;-72
2023/06/09 10:29:54;;;;;;;;;17.50;16.50;;;;;27.66;37.59;100144.56;4973163;28;46394;-71
2023/06/09 10:32:25;;;;;;;;;22.25;19.00;;;;;27.68;37.35;100139.78;4972607;28;46249;-71
2023/06/09 10:34:53;;;;;;;;;17.75;15.75;;;;;27.78;37.27;100144.56;4972209;28;45694;-71
2023/06/09 10:37:32;;;;;;;;;17.00;17.00;;;;;27.84;36.28;100138.25;4974897;28;45822;-72
2023/06/09 10:40:20;;;;;;;;;17.50;16.25;;;;;27.86;36.04;100136.97;4976004;28;46605;-73
2023/06/09 10:42:54;;;;;;;;;17.75;17.50;;;;;27.92;36.48;100141.41;4975969;28;45733;-72
2023/06/09 10:45:20;;;;;;;;;18.00;17.00;;;;;27.98;36.42;100135.09;4976102;28;45749;-72
2023/06/09 10:47:47;;;;;;;;;20.00;19.00;;;;;28.06;36.71;100139.31;4958405;28;45685;-72
2023/06/09 10:50:22;;;;;;;;;18.00;17.25;;;;;28.12;35.75;100137.56;4976018;28;46443;-73
2023/06/09 10:52:53;;;;;;;;;21.00;18.00;;;;;28.17;35.86;100138.53;4976000;28;47060;-73
2023/06/09 10:55:22;;;;;;;;;17.75;15.00;;;;;28.24;35.90;100139.22;4975740;28;45695;-75
2023/06/09 10:57:49;;;;;;;;;19.50;19.00;;;;;28.33;35.87;100137.81;4975630;28;45713;-75
2023/06/09 11:00:26;;;;;;;;;16.00;15.50;;;;;28.40;35.43;100143.06;4975482;28;47589;-71
2023/06/09 11:03:28;;;;;;;;;19.25;18.50;;;;;28.47;34.90;100143.75;4975721;28;46152;-72
2023/06/09 11:06:02;;;;;;;;;18.00;17.75;;;;;28.45;34.77;100131.59;4952602;28;45664;-72
2023/06/09 11:09:06;;;;;;;;;18.75;16.25;;;;;28.55;35.12;100148.81;4975730;28;45786;-72
2023/06/09 11:11:51;;;;;;;;;18.50;16.75;;;;;28.61;35.25;100141.63;4975542;28;45540;-72
2023/06/09 11:14:44;;;;;;;;;19.75;19.50;;;;;28.65;35.22;100149.00;4975640;28;47175;-72
2023/06/09 11:17:17;;;;;;;;;17.00;16.25;;;;;28.71;34.97;100147.22;4975502;28;45667;-74
2023/06/09 11:19:43;;;;;;;;;20.00;19.00;;;;;28.74;34.78;100150.28;4958202;28;45874;-74
2023/06/09 11:22:09;;;;;;;;;16.50;15.75;;;;;28.73;34.64;100137.03;4975740;28;45570;-71
2023/06/09 11:24:46;;;;;;;;;17.00;16.75;;;;;28.82;34.03;100153.69;4975543;28;46105;-74
2023/06/09 11:27:19;;;;;;;;;16.00;15.00;;;;;28.79;34.21;100150.41;4975217;28;45745;-74
2023/06/09 11:30:11;;;;;;;;;16.00;15.25;;;;;28.85;33.58;100159.41;4976054;28;45701;-72
2023/06/09 11:32:50;;;;;;;;;15.25;15.25;;;;;28.84;33.19;100144.28;4975367;28;47316;-73
2023/06/09 11:35:27;;;;;;;;;16.75;16.00;;;;;28.86;32.76;100146.75;4975684;28;46442;-73
2023/06/09 11:41:19;;;;;;;;;15.50;14.75;;;;;28.91;33.05;100153.06;4975616;28;45635;-73
2023/06/09 11:43:50;;;;;;;;;15.25;15.25;;;;;28.94;32.99;100151.75;4975373;28;46614;-72
2023/06/09 11:46:16;;;;;;;;;16.75;15.00;;;;;28.95;33.06;100148.81;4975534;28;46059;-71
2023/06/09 11:49:02;;;;;;;;;16.00;15.25;;;;;28.97;32.47;100146.72;4974942;28;45736;-71
2023/06/09 11:51:28;;;;;;;;;19.25;16.50;;;;;28.97;32.43;100149.41;4975661;28;45699;-72
2023/06/09 11:57:17;;;;;;;;;15.00;15.00;;;;;29.02;32.83;100145.97;4970801;28;45974;-73
2023/06/09 11:59:43;;;;;;;;;17.25;17.25;;;;;29.05;32.56;100153.59;4975242;28;45648;-72
2023/06/09 12:02:10;;;;;;;;;14.75;14.25;;;;;29.06;32.81;100149.81;4975501;28;45822;-71
2023/06/09 12:04:40;;;;;;;;;13.50;12.25;;;;;29.05;32.53;100140.09;4975202;28;45583;-72
2023/06/09 12:07:09;;;;;;;;;18.00;17.25;;;;;29.02;32.66;100136.00;4974867;28;46121;-73
2023/06/09 12:12:58;;;;;;;;;16.25;16.00;;;;;29.13;32.30;100147.81;4974983;28;45592;-73
2023/06/09 12:15:27;;;;;;;;;17.25;16.75;;;;;29.11;32.55;100136.44;4974828;28;45660;-72
2023/06/09 12:17:56;;;;;;;;;17.00;16.00;;;;;29.16;32.45;100137.34;4974452;28;46459;-72
2023/06/09 12:20:25;;;;;;;;;17.25;15.50;;;;;29.19;31.87;100130.66;4974796;28;45606;-72
2023/06/09 12:22:57;;;;;;;;;15.25;14.50;;;;;29.16;32.00;100125.72;4957479;28;45458;-72
2023/06/09 12:28:53;;;;;;;;;16.50;15.50;;;;;29.24;32.11;100117.25;4974558;28;46081;-71
2023/06/09 12:31:19;;;;;;;;;17.75;17.25;;;;;29.29;31.91;100119.22;4973295;28;45539;-70
2023/06/09 12:33:48;;;;;;;;;15.00;14.25;;;;;29.31;32.01;100117.94;4974700;28;45786;-71
2023/06/09 12:36:14;;;;;;;;;19.00;17.00;;;;;29.36;31.81;100119.91;4973289;28;47683;-71
2023/06/09 12:38:43;;;;;;;;;16.00;16.00;;;;;29.38;31.44;100123.19;4974102;28;46064;-73
2023/06/09 12:41:10;;;;;;;;;18.00;17.75;;;;;29.40;31.49;100113.78;4974320;28;45472;-71
2023/06/09 12:43:57;;;;;;;;;13.25;13.00;;;;;29.43;31.54;100107.88;4974749;28;45650;-72
2023/06/09 12:46:32;;;;;;;;;14.75;13.00;;;;;29.48;31.88;100104.44;4974061;28;47403;-72